sensor_id;sensor_type;location;lat;lon;timestamp;P1;durP1;ratioP1;P2;durP2;ratioP2
19402;SDS011;9837;48.888;8.998;2023-04-09T00:00:37;15.73;;;11.77;;
19402;SDS011;9837;48.888;8.998;2023-04-09T00:03:03;16.00;;;11.93;;
19402;SDS011;9837;48.888;8.998;2023-04-09T00:05:29;16.37;;;12.23;;
19402;SDS011;9837;48.888;8.998;2023-04-09T00:07:55;14.53;;;11.37;;
19402;SDS011;9837;48.888;8.998;2023-04-09T00:10:21;16.43;;;12.23;;
19402;SDS011;9837;48.888;8.998;2023-04-09T00:12:47;15.77;;;12.50;;
19402;SDS011;9837;48.888;8.998;2023-04-09T00:15:13;16.33;;;11.67;;
19402;SDS011;9837;48.888;8.998;2023-04-09T00:17:39;16.47;;;12.00;;
19402;SDS011;9837;48.888;8.998;2023-04-09T00:20:06;16.67;;;12.17;;
19402;SDS011;9837;48.888;8.998;2023-04-09T00:22:32;18.97;;;14.27;;
19402;SDS011;9837;48.888;8.998;2023-04-09T00:24:58;19.70;;;14.97;;
19402;SDS011;9837;48.888;8.998;2023-04-09T00:27:24;20.23;;;14.57;;
19402;SDS011;9837;48.888;8.998;2023-04-09T00:29:52;19.77;;;13.73;;
19402;SDS011;9837;48.888;8.998;2023-04-09T00:32:19;19.90;;;13.70;;
19402;SDS011;9837;48.888;8.998;2023-04-09T00:34:45;18.87;;;13.47;;
19402;SDS011;9837;48.888;8.998;2023-04-09T00:37:11;19.17;;;14.67;;
19402;SDS011;9837;48.888;8.998;2023-04-09T00:39:37;19.07;;;14.03;;
19402;SDS011;9837;48.888;8.998;2023-04-09T00:42:03;19.90;;;13.90;;
19402;SDS011;9837;48.888;8.998;2023-04-09T00:44:29;20.57;;;14.50;;
19402;SDS011;9837;48.888;8.998;2023-04-09T00:46:55;19.47;;;15.70;;
19402;SDS011;9837;48.888;8.998;2023-04-09T00:49:23;22.03;;;14.90;;
19402;SDS011;9837;48.888;8.998;2023-04-09T00:51:50;19.33;;;14.30;;
19402;SDS011;9837;48.888;8.998;2023-04-09T00:54:16;18.83;;;13.97;;
19402;SDS011;9837;48.888;8.998;2023-04-09T00:56:42;25.47;;;15.37;;
19402;SDS011;9837;48.888;8.998;2023-04-09T00:59:08;21.57;;;14.27;;
19402;SDS011;9837;48.888;8.998;2023-04-09T01:01:34;17.83;;;13.70;;
19402;SDS011;9837;48.888;8.998;2023-04-09T01:04:00;20.40;;;14.00;;
19402;SDS011;9837;48.888;8.998;2023-04-09T01:06:31;26.53;;;17.47;;
19402;SDS011;9837;48.888;8.998;2023-04-09T01:09:08;24.43;;;16.63;;
19402;SDS011;9837;48.888;8.998;2023-04-09T01:17:08;23.17;;;16.50;;
19402;SDS011;9837;48.888;8.998;2023-04-09T01:19:41;23.43;;;16.03;;
19402;SDS011;9837;48.888;8.998;2023-04-09T01:22:12;22.40;;;16.87;;
19402;SDS011;9837;48.888;8.998;2023-04-09T01:27:20;23.73;;;16.67;;
19402;SDS011;9837;48.888;8.998;2023-04-09T01:29:47;21.77;;;15.37;;
19402;SDS011;9837;48.888;8.998;2023-04-09T01:32:17;19.70;;;15.20;;
19402;SDS011;9837;48.888;8.998;2023-04-09T01:34:44;23.97;;;15.90;;
19402;SDS011;9837;48.888;8.998;2023-04-09T01:37:11;19.67;;;15.87;;
19402;SDS011;9837;48.888;8.998;2023-04-09T01:39:38;23.23;;;14.73;;
19402;SDS011;9837;48.888;8.998;2023-04-09T01:42:04;22.67;;;14.80;;
19402;SDS011;9837;48.888;8.998;2023-04-09T01:44:35;20.17;;;15.23;;
19402;SDS011;9837;48.888;8.998;2023-04-09T01:47:01;19.87;;;15.27;;
19402;SDS011;9837;48.888;8.998;2023-04-09T01:49:28;18.40;;;14.47;;
19402;SDS011;9837;48.888;8.998;2023-04-09T01:51:54;20.03;;;14.07;;
19402;SDS011;9837;48.888;8.998;2023-04-09T01:54:20;18.87;;;14.00;;
19402;SDS011;9837;48.888;8.998;2023-04-09T01:56:46;20.63;;;14.60;;
19402;SDS011;9837;48.888;8.998;2023-04-09T01:59:13;19.67;;;14.60;;
19402;SDS011;9837;48.888;8.998;2023-04-09T02:01:46;18.90;;;13.07;;
19402;SDS011;9837;48.888;8.998;2023-04-09T02:04:15;21.87;;;13.97;;
19402;SDS011;9837;48.888;8.998;2023-04-09T02:09:30;16.63;;;13.37;;
19402;SDS011;9837;48.888;8.998;2023-04-09T02:11:57;19.00;;;14.53;;
19402;SDS011;9837;48.888;8.998;2023-04-09T02:14:26;19.40;;;14.23;;
19402;SDS011;9837;48.888;8.998;2023-04-09T02:16:53;17.33;;;13.47;;
19402;SDS011;9837;48.888;8.998;2023-04-09T02:19:19;18.67;;;13.90;;
19402;SDS011;9837;48.888;8.998;2023-04-09T02:21:45;18.57;;;13.83;;
19402;SDS011;9837;48.888;8.998;2023-04-09T02:24:11;20.20;;;14.93;;
19402;SDS011;9837;48.888;8.998;2023-04-09T02:26:37;19.63;;;14.03;;
19402;SDS011;9837;48.888;8.998;2023-04-09T02:29:03;18.97;;;13.67;;
19402;SDS011;9837;48.888;8.998;2023-04-09T02:31:30;20.97;;;14.53;;
19402;SDS011;9837;48.888;8.998;2023-04-09T02:33:56;18.93;;;13.10;;
19402;SDS011;9837;48.888;8.998;2023-04-09T02:36:22;20.73;;;13.30;;
19402;SDS011;9837;48.888;8.998;2023-04-09T02:38:48;18.53;;;13.73;;
19402;SDS011;9837;48.888;8.998;2023-04-09T02:41:14;20.27;;;14.70;;
19402;SDS011;9837;48.888;8.998;2023-04-09T02:43:40;19.43;;;12.90;;
19402;SDS011;9837;48.888;8.998;2023-04-09T02:46:06;19.40;;;13.43;;
19402;SDS011;9837;48.888;8.998;2023-04-09T02:48:32;18.43;;;13.23;;
19402;SDS011;9837;48.888;8.998;2023-04-09T02:50:58;16.97;;;12.67;;
19402;SDS011;9837;48.888;8.998;2023-04-09T02:53:25;17.40;;;13.23;;
19402;SDS011;9837;48.888;8.998;2023-04-09T02:55:51;17.43;;;12.43;;
19402;SDS011;9837;48.888;8.998;2023-04-09T02:58:17;18.37;;;13.33;;
19402;SDS011;9837;48.888;8.998;2023-04-09T03:00:43;19.30;;;14.03;;
19402;SDS011;9837;48.888;8.998;2023-04-09T03:03:09;17.47;;;13.17;;
19402;SDS011;9837;48.888;8.998;2023-04-09T03:05:35;16.63;;;13.70;;
19402;SDS011;9837;48.888;8.998;2023-04-09T03:08:02;19.53;;;12.87;;
19402;SDS011;9837;48.888;8.998;2023-04-09T03:10:28;20.30;;;14.30;;
19402;SDS011;9837;48.888;8.998;2023-04-09T03:12:54;16.60;;;12.70;;
19402;SDS011;9837;48.888;8.998;2023-04-09T03:15:20;20.30;;;13.17;;
19402;SDS011;9837;48.888;8.998;2023-04-09T03:17:46;16.77;;;13.03;;
19402;SDS011;9837;48.888;8.998;2023-04-09T03:20:12;18.70;;;13.10;;
19402;SDS011;9837;48.888;8.998;2023-04-09T03:22:38;18.53;;;12.80;;
19402;SDS011;9837;48.888;8.998;2023-04-09T03:25:04;21.40;;;13.37;;
19402;SDS011;9837;48.888;8.998;2023-04-09T03:27:31;18.53;;;13.27;;
19402;SDS011;9837;48.888;8.998;2023-04-09T03:29:57;17.40;;;12.43;;
19402;SDS011;9837;48.888;8.998;2023-04-09T03:32:23;15.87;;;11.87;;
19402;SDS011;9837;48.888;8.998;2023-04-09T03:34:52;19.40;;;13.07;;
19402;SDS011;9837;48.888;8.998;2023-04-09T03:37:18;17.17;;;12.40;;
19402;SDS011;9837;48.888;8.998;2023-04-09T03:39:44;17.93;;;12.63;;
19402;SDS011;9837;48.888;8.998;2023-04-09T03:42:10;19.03;;;11.60;;
19402;SDS011;9837;48.888;8.998;2023-04-09T03:44:36;17.13;;;12.27;;
19402;SDS011;9837;48.888;8.998;2023-04-09T03:47:02;18.60;;;12.47;;
19402;SDS011;9837;48.888;8.998;2023-04-09T03:49:28;17.23;;;12.77;;
19402;SDS011;9837;48.888;8.998;2023-04-09T03:51:54;21.47;;;14.70;;
19402;SDS011;9837;48.888;8.998;2023-04-09T03:54:21;19.17;;;12.07;;
19402;SDS011;9837;48.888;8.998;2023-04-09T03:56:47;17.83;;;13.00;;
19402;SDS011;9837;48.888;8.998;2023-04-09T03:59:13;21.60;;;12.53;;
19402;SDS011;9837;48.888;8.998;2023-04-09T04:01:39;18.00;;;12.57;;
19402;SDS011;9837;48.888;8.998;2023-04-09T04:04:05;20.07;;;13.23;;
19402;SDS011;9837;48.888;8.998;2023-04-09T04:06:34;18.10;;;12.23;;
19402;SDS011;9837;48.888;8.998;2023-04-09T04:09:00;22.57;;;12.80;;
19402;SDS011;9837;48.888;8.998;2023-04-09T04:11:26;24.53;;;13.83;;
19402;SDS011;9837;48.888;8.998;2023-04-09T04:13:52;19.70;;;13.23;;
19402;SDS011;9837;48.888;8.998;2023-04-09T04:16:19;18.97;;;15.30;;
19402;SDS011;9837;48.888;8.998;2023-04-09T04:18:45;19.67;;;14.27;;
19402;SDS011;9837;48.888;8.998;2023-04-09T04:21:14;23.73;;;14.67;;
19402;SDS011;9837;48.888;8.998;2023-04-09T04:23:40;17.53;;;13.23;;
19402;SDS011;9837;48.888;8.998;2023-04-09T04:26:09;19.83;;;13.70;;
19402;SDS011;9837;48.888;8.998;2023-04-09T04:28:36;24.87;;;17.00;;
19402;SDS011;9837;48.888;8.998;2023-04-09T04:31:02;21.53;;;14.93;;
19402;SDS011;9837;48.888;8.998;2023-04-09T04:33:36;25.63;;;15.63;;
19402;SDS011;9837;48.888;8.998;2023-04-09T04:36:06;23.70;;;15.77;;
19402;SDS011;9837;48.888;8.998;2023-04-09T04:38:32;26.20;;;16.03;;
19402;SDS011;9837;48.888;8.998;2023-04-09T04:40:59;26.20;;;16.73;;
19402;SDS011;9837;48.888;8.998;2023-04-09T04:43:25;20.63;;;13.83;;
19402;SDS011;9837;48.888;8.998;2023-04-09T04:45:52;21.03;;;15.03;;
19402;SDS011;9837;48.888;8.998;2023-04-09T04:48:18;22.93;;;14.57;;
19402;SDS011;9837;48.888;8.998;2023-04-09T04:50:44;25.20;;;16.50;;
19402;SDS011;9837;48.888;8.998;2023-04-09T04:53:10;25.30;;;17.47;;
19402;SDS011;9837;48.888;8.998;2023-04-09T04:55:36;21.40;;;13.83;;
19402;SDS011;9837;48.888;8.998;2023-04-09T04:58:05;22.07;;;15.00;;
19402;SDS011;9837;48.888;8.998;2023-04-09T05:00:31;21.23;;;14.73;;
19402;SDS011;9837;48.888;8.998;2023-04-09T05:02:57;24.17;;;15.07;;
19402;SDS011;9837;48.888;8.998;2023-04-09T05:05:23;22.57;;;14.57;;
19402;SDS011;9837;48.888;8.998;2023-04-09T05:07:50;22.37;;;13.30;;
19402;SDS011;9837;48.888;8.998;2023-04-09T05:10:16;20.37;;;13.73;;
19402;SDS011;9837;48.888;8.998;2023-04-09T05:12:42;19.73;;;12.83;;
19402;SDS011;9837;48.888;8.998;2023-04-09T05:15:08;21.90;;;13.97;;
19402;SDS011;9837;48.888;8.998;2023-04-09T05:17:34;18.63;;;13.30;;
19402;SDS011;9837;48.888;8.998;2023-04-09T05:20:00;21.57;;;13.87;;
19402;SDS011;9837;48.888;8.998;2023-04-09T05:22:26;18.77;;;13.20;;
19402;SDS011;9837;48.888;8.998;2023-04-09T05:24:52;20.03;;;14.50;;
19402;SDS011;9837;48.888;8.998;2023-04-09T05:27:18;19.73;;;13.13;;
19402;SDS011;9837;48.888;8.998;2023-04-09T05:29:46;18.83;;;14.30;;
19402;SDS011;9837;48.888;8.998;2023-04-09T05:32:12;20.03;;;14.67;;
19402;SDS011;9837;48.888;8.998;2023-04-09T05:34:38;22.17;;;15.73;;
19402;SDS011;9837;48.888;8.998;2023-04-09T05:37:04;22.60;;;15.03;;
19402;SDS011;9837;48.888;8.998;2023-04-09T05:39:31;18.63;;;12.07;;
19402;SDS011;9837;48.888;8.998;2023-04-09T05:41:57;17.37;;;12.60;;
19402;SDS011;9837;48.888;8.998;2023-04-09T05:44:23;21.17;;;12.93;;
19402;SDS011;9837;48.888;8.998;2023-04-09T05:46:49;20.67;;;12.37;;
19402;SDS011;9837;48.888;8.998;2023-04-09T05:49:15;22.80;;;13.40;;
19402;SDS011;9837;48.888;8.998;2023-04-09T05:51:41;18.97;;;14.73;;
19402;SDS011;9837;48.888;8.998;2023-04-09T05:54:07;19.83;;;12.60;;
19402;SDS011;9837;48.888;8.998;2023-04-09T05:56:34;21.77;;;12.47;;
19402;SDS011;9837;48.888;8.998;2023-04-09T05:59:00;19.87;;;12.57;;
19402;SDS011;9837;48.888;8.998;2023-04-09T06:01:26;18.93;;;13.20;;
19402;SDS011;9837;48.888;8.998;2023-04-09T06:03:53;17.43;;;12.50;;
19402;SDS011;9837;48.888;8.998;2023-04-09T06:06:19;18.57;;;12.97;;
19402;SDS011;9837;48.888;8.998;2023-04-09T06:08:45;18.13;;;11.80;;
19402;SDS011;9837;48.888;8.998;2023-04-09T06:11:12;19.27;;;12.03;;
19402;SDS011;9837;48.888;8.998;2023-04-09T06:13:38;15.40;;;10.93;;
19402;SDS011;9837;48.888;8.998;2023-04-09T06:16:05;16.80;;;11.40;;
19402;SDS011;9837;48.888;8.998;2023-04-09T06:18:32;24.17;;;13.80;;
19402;SDS011;9837;48.888;8.998;2023-04-09T06:21:02;20.27;;;13.67;;
19402;SDS011;9837;48.888;8.998;2023-04-09T06:23:28;15.47;;;12.17;;
19402;SDS011;9837;48.888;8.998;2023-04-09T06:25:54;18.37;;;11.93;;
19402;SDS011;9837;48.888;8.998;2023-04-09T06:28:20;14.20;;;9.63;;
19402;SDS011;9837;48.888;8.998;2023-04-09T06:30:46;15.73;;;9.90;;
19402;SDS011;9837;48.888;8.998;2023-04-09T06:33:13;12.97;;;9.63;;
19402;SDS011;9837;48.888;8.998;2023-04-09T06:35:39;13.47;;;9.57;;
19402;SDS011;9837;48.888;8.998;2023-04-09T06:38:05;14.17;;;9.30;;
19402;SDS011;9837;48.888;8.998;2023-04-09T06:40:31;11.87;;;9.00;;
19402;SDS011;9837;48.888;8.998;2023-04-09T06:42:57;12.00;;;8.50;;
19402;SDS011;9837;48.888;8.998;2023-04-09T06:45:23;11.97;;;8.20;;
19402;SDS011;9837;48.888;8.998;2023-04-09T06:47:49;11.40;;;8.63;;
19402;SDS011;9837;48.888;8.998;2023-04-09T06:50:16;10.83;;;8.43;;
19402;SDS011;9837;48.888;8.998;2023-04-09T06:52:42;10.10;;;8.73;;
19402;SDS011;9837;48.888;8.998;2023-04-09T06:55:08;12.17;;;8.77;;
19402;SDS011;9837;48.888;8.998;2023-04-09T06:57:35;11.70;;;8.97;;
19402;SDS011;9837;48.888;8.998;2023-04-09T07:00:02;11.87;;;8.67;;
19402;SDS011;9837;48.888;8.998;2023-04-09T07:02:28;11.77;;;8.77;;
19402;SDS011;9837;48.888;8.998;2023-04-09T07:04:54;11.83;;;9.13;;
19402;SDS011;9837;48.888;8.998;2023-04-09T07:07:20;10.80;;;8.90;;
19402;SDS011;9837;48.888;8.998;2023-04-09T07:09:47;11.53;;;9.63;;
19402;SDS011;9837;48.888;8.998;2023-04-09T07:12:13;13.33;;;9.33;;
19402;SDS011;9837;48.888;8.998;2023-04-09T07:14:40;10.57;;;8.70;;
19402;SDS011;9837;48.888;8.998;2023-04-09T07:17:06;11.07;;;8.37;;
19402;SDS011;9837;48.888;8.998;2023-04-09T07:19:32;10.50;;;8.83;;
19402;SDS011;9837;48.888;8.998;2023-04-09T07:21:58;9.80;;;8.77;;
19402;SDS011;9837;48.888;8.998;2023-04-09T07:24:24;13.40;;;10.00;;
19402;SDS011;9837;48.888;8.998;2023-04-09T07:26:50;10.17;;;9.10;;
19402;SDS011;9837;48.888;8.998;2023-04-09T07:29:16;14.47;;;9.10;;
19402;SDS011;9837;48.888;8.998;2023-04-09T07:31:44;11.43;;;9.07;;
19402;SDS011;9837;48.888;8.998;2023-04-09T07:34:10;11.27;;;9.17;;
19402;SDS011;9837;48.888;8.998;2023-04-09T07:36:36;10.20;;;8.53;;
19402;SDS011;9837;48.888;8.998;2023-04-09T07:39:03;10.20;;;9.00;;
19402;SDS011;9837;48.888;8.998;2023-04-09T07:41:29;11.20;;;8.40;;
19402;SDS011;9837;48.888;8.998;2023-04-09T07:43:55;11.83;;;8.90;;
19402;SDS011;9837;48.888;8.998;2023-04-09T07:46:21;10.80;;;8.93;;
19402;SDS011;9837;48.888;8.998;2023-04-09T07:48:47;11.63;;;8.63;;
19402;SDS011;9837;48.888;8.998;2023-04-09T07:51:13;10.83;;;8.87;;
19402;SDS011;9837;48.888;8.998;2023-04-09T07:53:40;12.13;;;9.93;;
19402;SDS011;9837;48.888;8.998;2023-04-09T07:56:06;11.60;;;9.23;;
19402;SDS011;9837;48.888;8.998;2023-04-09T07:58:32;10.67;;;9.10;;
19402;SDS011;9837;48.888;8.998;2023-04-09T08:00:59;12.47;;;9.53;;
19402;SDS011;9837;48.888;8.998;2023-04-09T08:03:24;10.80;;;8.60;;
19402;SDS011;9837;48.888;8.998;2023-04-09T08:05:51;12.83;;;9.33;;
19402;SDS011;9837;48.888;8.998;2023-04-09T08:08:17;10.13;;;8.43;;
19402;SDS011;9837;48.888;8.998;2023-04-09T08:10:43;10.33;;;8.33;;
19402;SDS011;9837;48.888;8.998;2023-04-09T08:13:10;12.93;;;9.47;;
19402;SDS011;9837;48.888;8.998;2023-04-09T08:15:35;11.97;;;8.90;;
19402;SDS011;9837;48.888;8.998;2023-04-09T08:18:01;11.70;;;9.10;;
19402;SDS011;9837;48.888;8.998;2023-04-09T08:20:28;11.37;;;9.40;;
19402;SDS011;9837;48.888;8.998;2023-04-09T08:22:54;11.30;;;8.47;;
19402;SDS011;9837;48.888;8.998;2023-04-09T08:25:21;7.97;;;6.40;;
19402;SDS011;9837;48.888;8.998;2023-04-09T08:27:47;9.47;;;7.80;;
19402;SDS011;9837;48.888;8.998;2023-04-09T08:30:13;9.63;;;8.37;;
19402;SDS011;9837;48.888;8.998;2023-04-09T08:32:39;10.93;;;8.90;;
19402;SDS011;9837;48.888;8.998;2023-04-09T08:35:06;8.97;;;7.23;;
19402;SDS011;9837;48.888;8.998;2023-04-09T08:37:33;9.77;;;7.50;;
19402;SDS011;9837;48.888;8.998;2023-04-09T08:39:58;9.13;;;7.83;;
19402;SDS011;9837;48.888;8.998;2023-04-09T08:42:25;8.93;;;6.47;;
19402;SDS011;9837;48.888;8.998;2023-04-09T08:44:51;9.77;;;7.30;;
19402;SDS011;9837;48.888;8.998;2023-04-09T08:47:18;8.97;;;6.87;;
19402;SDS011;9837;48.888;8.998;2023-04-09T08:49:44;7.67;;;6.30;;
19402;SDS011;9837;48.888;8.998;2023-04-09T08:52:12;7.53;;;6.53;;
19402;SDS011;9837;48.888;8.998;2023-04-09T08:54:40;6.20;;;5.37;;
19402;SDS011;9837;48.888;8.998;2023-04-09T08:57:06;7.53;;;5.40;;
19402;SDS011;9837;48.888;8.998;2023-04-09T08:59:32;5.20;;;4.70;;
19402;SDS011;9837;48.888;8.998;2023-04-09T09:02:08;7.83;;;5.33;;
19402;SDS011;9837;48.888;8.998;2023-04-09T09:04:44;6.63;;;5.37;;
19402;SDS011;9837;48.888;8.998;2023-04-09T09:07:14;6.57;;;5.53;;
19402;SDS011;9837;48.888;8.998;2023-04-09T09:12:29;6.67;;;5.30;;
19402;SDS011;9837;48.888;8.998;2023-04-09T09:14:59;6.77;;;5.43;;
19402;SDS011;9837;48.888;8.998;2023-04-09T09:17:25;6.00;;;4.87;;
19402;SDS011;9837;48.888;8.998;2023-04-09T09:19:51;6.00;;;4.97;;
19402;SDS011;9837;48.888;8.998;2023-04-09T09:22:17;7.50;;;5.57;;
19402;SDS011;9837;48.888;8.998;2023-04-09T09:24:47;6.93;;;5.37;;
19402;SDS011;9837;48.888;8.998;2023-04-09T09:27:30;5.27;;;3.93;;
19402;SDS011;9837;48.888;8.998;2023-04-09T09:29:56;5.00;;;4.00;;
19402;SDS011;9837;48.888;8.998;2023-04-09T09:32:23;7.33;;;5.03;;
19402;SDS011;9837;48.888;8.998;2023-04-09T09:35:02;5.07;;;4.27;;
19402;SDS011;9837;48.888;8.998;2023-04-09T09:37:29;6.03;;;5.33;;
19402;SDS011;9837;48.888;8.998;2023-04-09T09:39:55;5.30;;;3.80;;
19402;SDS011;9837;48.888;8.998;2023-04-09T09:42:21;5.47;;;4.20;;
19402;SDS011;9837;48.888;8.998;2023-04-09T09:44:48;6.10;;;5.00;;
19402;SDS011;9837;48.888;8.998;2023-04-09T09:47:15;5.10;;;4.60;;
19402;SDS011;9837;48.888;8.998;2023-04-09T09:49:43;5.77;;;4.97;;
19402;SDS011;9837;48.888;8.998;2023-04-09T09:52:10;5.97;;;4.63;;
19402;SDS011;9837;48.888;8.998;2023-04-09T09:54:39;5.60;;;4.87;;
19402;SDS011;9837;48.888;8.998;2023-04-09T09:57:09;5.50;;;4.60;;
19402;SDS011;9837;48.888;8.998;2023-04-09T09:59:42;5.90;;;4.93;;
19402;SDS011;9837;48.888;8.998;2023-04-09T10:02:24;5.50;;;4.37;;
19402;SDS011;9837;48.888;8.998;2023-04-09T10:04:58;8.40;;;5.40;;
19402;SDS011;9837;48.888;8.998;2023-04-09T10:07:24;4.73;;;4.07;;
19402;SDS011;9837;48.888;8.998;2023-04-09T10:09:51;5.63;;;4.47;;
19402;SDS011;9837;48.888;8.998;2023-04-09T10:12:20;6.53;;;5.33;;
19402;SDS011;9837;48.888;8.998;2023-04-09T10:14:50;6.40;;;5.37;;
19402;SDS011;9837;48.888;8.998;2023-04-09T10:17:19;6.20;;;5.40;;
19402;SDS011;9837;48.888;8.998;2023-04-09T10:20:09;5.50;;;4.60;;
19402;SDS011;9837;48.888;8.998;2023-04-09T10:22:35;5.77;;;4.83;;
19402;SDS011;9837;48.888;8.998;2023-04-09T10:25:02;5.13;;;4.60;;
19402;SDS011;9837;48.888;8.998;2023-04-09T10:27:30;3.70;;;3.20;;
19402;SDS011;9837;48.888;8.998;2023-04-09T10:29:56;3.70;;;3.27;;
19402;SDS011;9837;48.888;8.998;2023-04-09T10:32:24;5.73;;;4.20;;
19402;SDS011;9837;48.888;8.998;2023-04-09T10:34:52;4.60;;;3.83;;
19402;SDS011;9837;48.888;8.998;2023-04-09T10:37:22;2.53;;;2.30;;
19402;SDS011;9837;48.888;8.998;2023-04-09T10:39:49;3.20;;;2.50;;
19402;SDS011;9837;48.888;8.998;2023-04-09T10:42:20;4.20;;;2.80;;
19402;SDS011;9837;48.888;8.998;2023-04-09T10:45:09;3.63;;;3.07;;
19402;SDS011;9837;48.888;8.998;2023-04-09T10:47:37;3.20;;;2.90;;
19402;SDS011;9837;48.888;8.998;2023-04-09T10:52:55;3.60;;;2.40;;
19402;SDS011;9837;48.888;8.998;2023-04-09T10:55:36;3.43;;;2.97;;
19402;SDS011;9837;48.888;8.998;2023-04-09T10:58:12;3.87;;;3.20;;
19402;SDS011;9837;48.888;8.998;2023-04-09T11:00:38;2.60;;;2.40;;
19402;SDS011;9837;48.888;8.998;2023-04-09T11:03:19;3.73;;;3.13;;
19402;SDS011;9837;48.888;8.998;2023-04-09T11:06:06;3.63;;;2.93;;
19402;SDS011;9837;48.888;8.998;2023-04-09T11:08:34;3.20;;;2.83;;
19402;SDS011;9837;48.888;8.998;2023-04-09T11:11:02;3.77;;;3.37;;
19402;SDS011;9837;48.888;8.998;2023-04-09T11:13:28;5.60;;;4.23;;
19402;SDS011;9837;48.888;8.998;2023-04-09T11:15:55;5.93;;;4.50;;
19402;SDS011;9837;48.888;8.998;2023-04-09T11:18:25;5.30;;;4.77;;
19402;SDS011;9837;48.888;8.998;2023-04-09T11:20:55;5.83;;;4.10;;
19402;SDS011;9837;48.888;8.998;2023-04-09T11:23:23;4.73;;;4.07;;
19402;SDS011;9837;48.888;8.998;2023-04-09T11:25:49;4.73;;;3.80;;
19402;SDS011;9837;48.888;8.998;2023-04-09T11:28:16;4.70;;;4.07;;
19402;SDS011;9837;48.888;8.998;2023-04-09T11:30:42;5.40;;;3.73;;
19402;SDS011;9837;48.888;8.998;2023-04-09T11:33:08;4.53;;;3.60;;
19402;SDS011;9837;48.888;8.998;2023-04-09T11:35:34;3.97;;;3.50;;
19402;SDS011;9837;48.888;8.998;2023-04-09T11:38:04;4.20;;;3.60;;
19402;SDS011;9837;48.888;8.998;2023-04-09T11:40:34;4.27;;;3.73;;
19402;SDS011;9837;48.888;8.998;2023-04-09T11:43:00;3.93;;;3.20;;
19402;SDS011;9837;48.888;8.998;2023-04-09T11:45:27;5.50;;;3.40;;
19402;SDS011;9837;48.888;8.998;2023-04-09T11:47:54;3.70;;;3.30;;
19402;SDS011;9837;48.888;8.998;2023-04-09T11:50:20;4.03;;;3.60;;
19402;SDS011;9837;48.888;8.998;2023-04-09T11:52:47;5.87;;;3.70;;
19402;SDS011;9837;48.888;8.998;2023-04-09T11:55:23;4.30;;;3.90;;
19402;SDS011;9837;48.888;8.998;2023-04-09T11:57:51;4.50;;;4.00;;
19402;SDS011;9837;48.888;8.998;2023-04-09T12:00:27;5.10;;;3.53;;
19402;SDS011;9837;48.888;8.998;2023-04-09T12:03:02;4.40;;;3.63;;
19402;SDS011;9837;48.888;8.998;2023-04-09T12:05:29;3.80;;;3.47;;
19402;SDS011;9837;48.888;8.998;2023-04-09T12:08:00;5.33;;;3.93;;
19402;SDS011;9837;48.888;8.998;2023-04-09T12:10:32;3.80;;;3.33;;
19402;SDS011;9837;48.888;8.998;2023-04-09T12:13:03;4.07;;;3.33;;
19402;SDS011;9837;48.888;8.998;2023-04-09T12:15:31;4.50;;;3.70;;
19402;SDS011;9837;48.888;8.998;2023-04-09T12:17:58;4.10;;;3.67;;
19402;SDS011;9837;48.888;8.998;2023-04-09T12:20:31;4.80;;;3.87;;
19402;SDS011;9837;48.888;8.998;2023-04-09T12:22:58;4.80;;;3.50;;
19402;SDS011;9837;48.888;8.998;2023-04-09T12:25:32;4.37;;;3.80;;
19402;SDS011;9837;48.888;8.998;2023-04-09T12:28:00;4.97;;;3.90;;
19402;SDS011;9837;48.888;8.998;2023-04-09T12:30:27;4.97;;;4.37;;
19402;SDS011;9837;48.888;8.998;2023-04-09T12:32:53;11.03;;;4.17;;
19402;SDS011;9837;48.888;8.998;2023-04-09T12:35:20;4.73;;;4.23;;
19402;SDS011;9837;48.888;8.998;2023-04-09T12:37:46;4.63;;;4.23;;
19402;SDS011;9837;48.888;8.998;2023-04-09T12:40:12;4.60;;;3.70;;
19402;SDS011;9837;48.888;8.998;2023-04-09T12:42:39;4.63;;;4.13;;
19402;SDS011;9837;48.888;8.998;2023-04-09T12:45:06;5.23;;;4.03;;
19402;SDS011;9837;48.888;8.998;2023-04-09T12:47:35;4.30;;;3.67;;
19402;SDS011;9837;48.888;8.998;2023-04-09T12:50:02;4.63;;;4.03;;
19402;SDS011;9837;48.888;8.998;2023-04-09T12:52:28;4.43;;;4.00;;
19402;SDS011;9837;48.888;8.998;2023-04-09T12:54:54;4.27;;;3.87;;
19402;SDS011;9837;48.888;8.998;2023-04-09T12:57:19;5.53;;;3.87;;
19402;SDS011;9837;48.888;8.998;2023-04-09T12:59:48;5.83;;;4.10;;
19402;SDS011;9837;48.888;8.998;2023-04-09T13:02:13;5.13;;;4.03;;
19402;SDS011;9837;48.888;8.998;2023-04-09T13:04:39;3.83;;;3.37;;
19402;SDS011;9837;48.888;8.998;2023-04-09T13:07:05;3.70;;;3.40;;
19402;SDS011;9837;48.888;8.998;2023-04-09T13:09:30;4.47;;;3.77;;
19402;SDS011;9837;48.888;8.998;2023-04-09T13:11:56;3.83;;;3.50;;
19402;SDS011;9837;48.888;8.998;2023-04-09T13:14:21;4.00;;;3.60;;
19402;SDS011;9837;48.888;8.998;2023-04-09T13:16:47;4.43;;;3.63;;
19402;SDS011;9837;48.888;8.998;2023-04-09T13:19:13;3.70;;;3.23;;
19402;SDS011;9837;48.888;8.998;2023-04-09T13:21:39;4.40;;;3.50;;
19402;SDS011;9837;48.888;8.998;2023-04-09T13:24:04;5.10;;;3.90;;
19402;SDS011;9837;48.888;8.998;2023-04-09T13:26:30;3.87;;;3.33;;
19402;SDS011;9837;48.888;8.998;2023-04-09T13:28:56;3.90;;;3.50;;
19402;SDS011;9837;48.888;8.998;2023-04-09T13:31:22;4.97;;;3.83;;
19402;SDS011;9837;48.888;8.998;2023-04-09T13:33:48;5.63;;;3.50;;
19402;SDS011;9837;48.888;8.998;2023-04-09T13:36:14;3.60;;;3.30;;
19402;SDS011;9837;48.888;8.998;2023-04-09T13:38:39;3.53;;;3.23;;
19402;SDS011;9837;48.888;8.998;2023-04-09T13:41:05;4.10;;;3.70;;
19402;SDS011;9837;48.888;8.998;2023-04-09T13:43:31;5.70;;;4.33;;
19402;SDS011;9837;48.888;8.998;2023-04-09T13:45:56;4.20;;;3.50;;
19402;SDS011;9837;48.888;8.998;2023-04-09T13:48:22;4.27;;;3.50;;
19402;SDS011;9837;48.888;8.998;2023-04-09T13:50:48;3.47;;;3.17;;
19402;SDS011;9837;48.888;8.998;2023-04-09T13:53:14;5.67;;;2.97;;
19402;SDS011;9837;48.888;8.998;2023-04-09T13:55:40;4.40;;;3.90;;
19402;SDS011;9837;48.888;8.998;2023-04-09T13:58:07;5.03;;;3.37;;
19402;SDS011;9837;48.888;8.998;2023-04-09T14:00:33;6.70;;;3.80;;
19402;SDS011;9837;48.888;8.998;2023-04-09T14:02:59;5.53;;;4.10;;
19402;SDS011;9837;48.888;8.998;2023-04-09T14:05:27;4.43;;;3.97;;
19402;SDS011;9837;48.888;8.998;2023-04-09T14:07:52;4.23;;;3.53;;
19402;SDS011;9837;48.888;8.998;2023-04-09T14:10:18;4.63;;;3.90;;
19402;SDS011;9837;48.888;8.998;2023-04-09T14:12:43;4.03;;;3.63;;
19402;SDS011;9837;48.888;8.998;2023-04-09T14:15:09;8.97;;;5.77;;
19402;SDS011;9837;48.888;8.998;2023-04-09T14:17:35;6.40;;;5.00;;
19402;SDS011;9837;48.888;8.998;2023-04-09T14:20:00;6.53;;;4.50;;
19402;SDS011;9837;48.888;8.998;2023-04-09T14:22:28;3.70;;;3.37;;
19402;SDS011;9837;48.888;8.998;2023-04-09T14:24:53;4.93;;;3.60;;
19402;SDS011;9837;48.888;8.998;2023-04-09T14:27:19;3.67;;;3.27;;
19402;SDS011;9837;48.888;8.998;2023-04-09T14:29:45;4.50;;;3.37;;
19402;SDS011;9837;48.888;8.998;2023-04-09T14:32:10;4.80;;;3.93;;
19402;SDS011;9837;48.888;8.998;2023-04-09T14:34:36;4.53;;;3.50;;
19402;SDS011;9837;48.888;8.998;2023-04-09T14:37:01;3.97;;;3.50;;
19402;SDS011;9837;48.888;8.998;2023-04-09T14:39:27;4.77;;;3.67;;
19402;SDS011;9837;48.888;8.998;2023-04-09T14:41:53;3.80;;;3.07;;
19402;SDS011;9837;48.888;8.998;2023-04-09T14:44:20;4.17;;;3.73;;
19402;SDS011;9837;48.888;8.998;2023-04-09T14:46:49;4.13;;;3.60;;
19402;SDS011;9837;48.888;8.998;2023-04-09T14:49:15;4.73;;;3.83;;
19402;SDS011;9837;48.888;8.998;2023-04-09T14:51:41;3.73;;;3.13;;
19402;SDS011;9837;48.888;8.998;2023-04-09T14:54:06;3.40;;;3.10;;
19402;SDS011;9837;48.888;8.998;2023-04-09T14:56:35;4.17;;;3.70;;
19402;SDS011;9837;48.888;8.998;2023-04-09T14:59:00;4.17;;;3.77;;
19402;SDS011;9837;48.888;8.998;2023-04-09T15:01:26;4.80;;;3.97;;
19402;SDS011;9837;48.888;8.998;2023-04-09T15:03:52;4.17;;;3.67;;